createdAt,value
2023-02-15T13:25:45.453Z,1.00
2023-02-15T15:00:50.840Z,12.90
2023-02-15T15:03:50.695Z,13.90
2023-02-15T15:06:41.614Z,15.50
2023-02-15T15:09:33.007Z,17.20
2023-02-15T15:12:40.959Z,17.70
2023-02-15T15:15:47.431Z,17.60
2023-02-15T15:18:46.722Z,18.00
2023-02-15T15:21:57.899Z,18.60
2023-02-15T15:24:55.172Z,20.30
2023-02-15T15:27:55.449Z,24.50
2023-02-15T15:31:08.835Z,29.30
2023-02-15T15:34:25.402Z,34.20
2023-02-15T15:37:52.574Z,37.30
2023-02-15T15:41:06.152Z,37.60
2023-02-15T15:44:43.170Z,38.90
2023-02-15T15:48:06.579Z,39.90
2023-02-15T15:50:59.073Z,41.70
2023-02-15T15:53:54.111Z,40.90
2023-02-15T15:56:48.620Z,40.70
2023-02-15T15:59:37.290Z,39.90
2023-02-15T16:02:25.864Z,40.10
2023-02-15T16:05:16.372Z,39.40
2023-02-15T16:08:05.085Z,39.00
2023-02-15T16:10:53.629Z,39.80
2023-02-15T16:13:42.996Z,40.60
2023-02-15T16:16:32.301Z,42.00
2023-02-15T16:19:24.545Z,43.40
2023-02-15T16:22:17.812Z,45.00
2023-02-15T16:25:35.540Z,46.10
2023-02-15T16:31:10.145Z,50.50
2023-02-15T16:34:00.397Z,53.80
2023-02-15T16:36:49.956Z,54.00
2023-02-15T16:39:44.274Z,54.90
2023-02-15T16:42:32.814Z,55.50
2023-02-15T16:45:24.595Z,56.60
2023-02-15T16:48:18.979Z,58.50
2023-02-15T16:51:08.103Z,60.20
2023-02-15T16:53:57.911Z,61.60
2023-02-15T16:56:48.638Z,63.20
2023-02-15T16:59:43.586Z,66.60
2023-02-15T17:02:55.506Z,68.30
2023-02-15T17:05:47.137Z,69.50
2023-02-15T17:08:37.999Z,70.60
2023-02-15T17:11:36.869Z,71.40
2023-02-15T17:14:31.960Z,72.30
2023-02-15T17:17:22.730Z,73.30
2023-02-15T17:20:17.426Z,73.90
2023-02-15T17:23:07.031Z,72.20
2023-02-15T17:25:55.867Z,70.80
2023-02-15T17:28:49.022Z,70.40
2023-02-15T17:31:39.791Z,70.20
2023-02-15T17:34:47.030Z,70.80
2023-02-15T17:37:46.595Z,71.00
2023-02-15T17:40:36.481Z,72.10
2023-02-15T17:43:25.094Z,73.30
2023-02-15T17:46:13.838Z,73.10
2023-02-15T17:49:04.377Z,72.90
2023-02-15T17:51:53.379Z,73.10
2023-02-15T17:54:59.433Z,73.90
2023-02-15T17:57:48.039Z,75.80
2023-02-15T18:00:55.979Z,76.30
2023-02-15T18:04:05.486Z,76.50
2023-02-15T18:07:12.920Z,77.10
2023-02-15T18:10:18.894Z,78.30
2023-02-15T18:13:07.502Z,78.90
2023-02-15T18:15:56.710Z,78.40
2023-02-15T18:18:46.460Z,80.10
2023-02-15T18:21:35.192Z,81.30
2023-02-15T18:24:26.497Z,80.60
2023-02-15T18:27:16.817Z,81.70
2023-02-15T18:30:05.732Z,81.50
2023-02-15T18:32:57.187Z,82.10
2023-02-15T18:35:45.887Z,82.50
2023-02-15T18:38:34.745Z,83.30
2023-02-15T18:41:24.817Z,84.30
2023-02-15T18:44:13.735Z,84.50
2023-02-15T18:47:02.265Z,84.90
2023-02-15T18:49:50.900Z,85.00
2023-02-15T18:52:40.145Z,85.10
2023-02-15T18:55:30.069Z,85.10
2023-02-15T18:58:21.611Z,85.20
2023-02-15T19:01:16.783Z,85.80
2023-02-15T19:04:05.415Z,86.10
2023-02-15T19:06:54.077Z,86.80
2023-02-15T19:09:42.933Z,86.60
2023-02-15T19:12:31.956Z,86.80
2023-02-15T19:15:23.997Z,86.50
2023-02-15T19:18:13.005Z,86.80
2023-02-15T19:21:01.539Z,87.30
2023-02-15T19:23:56.156Z,87.20
2023-02-15T19:26:46.160Z,87.30
2023-02-15T19:29:34.918Z,87.30
2023-02-15T19:32:25.063Z,87.70
2023-02-15T19:35:19.898Z,88.10
2023-02-15T19:38:16.024Z,89.00
2023-02-15T19:41:08.697Z,89.80
2023-02-15T19:43:57.259Z,90.10
2023-02-15T19:46:45.888Z,90.90
2023-02-15T19:49:35.880Z,91.00
2023-02-15T19:52:25.648Z,91.70
2023-02-15T19:55:22.611Z,92.30
2023-02-15T19:58:13.945Z,92.20
2023-02-15T20:01:03.144Z,92.20
2023-02-15T20:03:53.436Z,92.10
2023-02-15T20:06:43.654Z,92.80
2023-02-15T20:09:35.601Z,93.00
2023-02-15T20:12:25.916Z,92.70
2023-02-15T20:15:20.580Z,92.00
2023-02-15T20:18:09.710Z,92.10
2023-02-15T20:20:58.797Z,93.30
2023-02-15T20:23:48.863Z,92.30
2023-02-15T20:26:37.523Z,91.30
2023-02-15T20:29:26.090Z,90.60
2023-02-15T20:32:14.881Z,89.20
2023-02-15T20:35:04.006Z,87.60
2023-02-15T20:37:55.051Z,87.10
2023-02-15T20:41:05.203Z,85.60
2023-02-15T20:43:53.964Z,84.20
2023-02-15T20:46:42.526Z,84.40
2023-02-15T20:49:31.163Z,83.90
2023-02-15T20:52:21.648Z,84.50
2023-02-15T20:55:15.136Z,83.70
2023-02-15T20:58:14.286Z,83.00
2023-02-15T21:01:03.766Z,81.80
2023-02-15T21:03:52.572Z,80.80
2023-02-15T21:06:41.107Z,79.90
2023-02-15T21:09:30.226Z,79.20
2023-02-15T21:12:21.182Z,78.00
2023-02-15T21:15:27.609Z,74.60
2023-02-15T21:18:19.966Z,71.70
2023-02-15T21:21:11.194Z,70.90
2023-02-15T21:23:59.769Z,68.90
2023-02-15T21:26:48.906Z,68.40
2023-02-15T21:29:37.480Z,67.30
2023-02-15T21:32:27.607Z,66.00
2023-02-15T21:35:16.757Z,65.50
2023-02-15T21:38:05.912Z,64.70
2023-02-15T21:40:54.486Z,65.00
2023-02-15T21:44:00.257Z,64.70
2023-02-15T21:47:06.020Z,63.70
2023-02-15T21:49:56.176Z,63.10
2023-02-15T21:52:44.211Z,62.20
2023-02-15T21:55:33.253Z,62.10
2023-02-15T21:58:24.675Z,62.90
2023-02-15T22:01:22.585Z,62.60
2023-02-15T22:04:15.262Z,62.20
2023-02-15T22:07:05.270Z,62.90
2023-02-15T22:09:54.627Z,63.00
2023-02-15T22:12:44.481Z,63.40
2023-02-15T22:15:36.799Z,63.40
2023-02-15T22:18:27.793Z,63.40
2023-02-15T22:21:18.192Z,61.60
2023-02-15T22:24:08.369Z,62.60
2023-02-15T22:26:57.273Z,62.90
2023-02-15T22:29:45.902Z,62.40
2023-02-15T22:32:34.654Z,62.60
2023-02-15T22:35:26.052Z,60.80
2023-02-15T22:38:14.546Z,59.80
2023-02-15T22:41:06.449Z,60.20
2023-02-15T22:43:55.237Z,60.50
2023-02-15T22:46:43.867Z,60.50
2023-02-15T22:49:32.380Z,61.30
2023-02-15T22:52:20.940Z,60.70
2023-02-15T22:55:10.795Z,59.70
2023-02-15T22:58:01.403Z,58.70
2023-02-15T23:00:50.552Z,59.60
2023-02-15T23:03:39.096Z,59.50
2023-02-15T23:06:27.710Z,59.30
2023-02-15T23:09:16.623Z,60.80
2023-02-15T23:12:14.110Z,61.30
2023-02-15T23:15:04.212Z,60.80
2023-02-15T23:17:52.832Z,60.20
2023-02-15T23:20:41.408Z,61.20
2023-02-15T23:23:33.068Z,61.90
2023-02-15T23:26:24.382Z,61.80
2023-02-15T23:29:15.973Z,60.60
2023-02-15T23:32:06.600Z,60.10
2023-02-15T23:34:55.165Z,59.70
2023-02-15T23:37:43.807Z,60.00
2023-02-15T23:40:49.492Z,60.80
2023-02-15T23:43:38.841Z,62.00
2023-02-15T23:46:30.903Z,63.50
2023-02-15T23:49:21.229Z,63.70
2023-02-15T23:52:11.828Z,61.10
2023-02-15T23:55:00.349Z,60.80
2023-02-15T23:57:49.478Z,62.80
